Time;durP1;ratioP1;P1;durP2;ratioP2;P2;SDS_P1;SDS_P2;PMS_P1;PMS_P2;Temp;Humidity;BMP_temperature;BMP_pressure;BME280_temperature;BME280_humidity;BME280_pressure;Samples;Min_cycle;Max_cycle;Signal;HPM_P1;HPM_P2
2022/03/09 00:02:23;;;;;;;11.30;8.73;;;-1.10;52.90;;;-2.66;65.34;98638.25;5025292;28;20468;-73
2022/03/09 00:04:51;;;;;;;13.73;9.70;;;-1.10;53.00;;;-2.52;65.25;98639.00;5027244;28;21282;-74
2022/03/09 00:07:19;;;;;;;16.80;10.13;;;-1.00;53.10;;;-2.35;64.42;98638.59;5022931;28;20469;-71
2022/03/09 00:09:46;;;;;;;13.80;10.37;;;-0.90;53.00;;;-2.22;64.06;98640.28;5026126;28;20864;-72
2022/03/09 00:12:13;;;;;;;10.43;8.80;;;-0.70;52.80;;;-2.17;63.92;98638.13;5020536;28;21119;-71
2022/03/09 00:14:40;;;;;;;21.63;10.50;;;-0.60;52.40;;;-2.30;64.21;98633.78;5021401;28;20923;-71
2022/03/09 00:17:10;;;;;;;14.03;10.30;;;-0.60;52.40;;;-2.29;64.66;98634.59;5023119;28;20501;-71
2022/03/09 00:19:37;;;;;;;14.63;9.90;;;-0.60;52.50;;;-2.40;64.51;98638.09;5025808;28;20497;-72
2022/03/09 00:22:06;;;;;;;14.67;9.30;;;-0.80;52.90;;;-2.65;65.74;98634.69;5024456;28;20541;-72
2022/03/09 00:24:33;;;;;;;12.57;9.97;;;-1.00;52.90;;;-2.50;65.57;98647.66;5023325;28;20489;-73
2022/03/09 00:27:01;;;;;;;13.10;10.40;;;-0.90;53.20;;;-2.67;66.16;98644.50;5020856;28;20532;-73
2022/03/09 00:29:28;;;;;;;15.23;10.40;;;-1.10;53.40;;;-2.68;66.08;98634.88;5022904;28;20467;-72
2022/03/09 00:31:55;;;;;;;11.90;9.90;;;-1.10;53.70;;;-2.97;66.14;98614.09;5024225;28;20532;-72
2022/03/09 00:34:22;;;;;;;16.57;9.83;;;-1.10;53.80;;;-2.88;66.74;98658.38;5023865;28;20489;-72
2022/03/09 00:36:49;;;;;;;14.20;9.27;;;-1.30;54.00;;;-2.61;66.11;98641.41;5022582;28;20577;-73
2022/03/09 00:39:17;;;;;;;10.57;8.83;;;-1.10;54.30;;;-2.58;65.94;98627.94;5021496;28;20651;-73
2022/03/09 00:41:44;;;;;;;14.87;10.67;;;-1.00;54.20;;;-2.48;65.62;98656.38;5023671;28;20473;-72
2022/03/09 00:44:11;;;;;;;13.90;10.50;;;-0.90;54.10;;;-2.57;66.09;98653.44;5021841;28;20521;-72
2022/03/09 00:46:38;;;;;;;11.90;9.53;;;-0.90;54.10;;;-2.53;66.05;98653.19;5023664;28;20486;-72
2022/03/09 00:49:05;;;;;;;16.30;10.30;;;-0.90;54.20;;;-2.55;65.80;98648.03;5021807;28;20570;-72
2022/03/09 00:51:32;;;;;;;12.80;9.27;;;-0.90;54.10;;;-2.62;66.26;98639.72;5021565;28;20917;-71
2022/03/09 00:53:59;;;;;;;16.17;10.33;;;-0.90;54.50;;;-2.60;66.59;98642.25;5018514;28;20468;-72
2022/03/09 00:56:27;;;;;;;14.43;9.80;;;-1.00;54.50;;;-2.65;66.35;98644.41;5021263;28;21066;-72
2022/03/09 00:58:55;;;;;;;17.67;10.30;;;-1.00;54.50;;;-2.79;67.36;98643.63;5021638;28;20492;-72
2022/03/09 01:01:21;;;;;;;12.30;9.20;;;-1.10;54.70;;;-2.97;67.81;98651.13;5021655;28;20462;-72
2022/03/09 01:03:48;;;;;;;14.47;10.50;;;-1.20;55.20;;;-3.20;68.26;98661.59;5037351;28;20953;-72
2022/03/09 01:06:16;;;;;;;13.00;9.87;;;-1.50;55.20;;;-3.21;68.38;98653.78;5035439;28;20862;-73
2022/03/09 01:08:43;;;;;;;13.13;9.43;;;-1.60;56.00;;;-3.01;67.60;98628.53;5021680;28;20469;-73
2022/03/09 01:11:11;;;;;;;11.77;9.00;;;-1.40;56.00;;;-2.86;67.54;98639.78;5017493;28;20498;-72
2022/03/09 01:13:39;;;;;;;16.80;10.60;;;-1.30;55.80;;;-2.97;67.86;98650.31;5024180;28;20502;-73
2022/03/09 01:16:06;;;;;;;12.77;9.20;;;-1.30;55.80;;;-3.29;69.01;98649.06;5024787;28;20482;-72
2022/03/09 01:18:33;;;;;;;12.67;9.50;;;-1.60;55.90;;;-3.47;69.37;98643.31;5025637;28;20516;-72
2022/03/09 01:21:01;;;;;;;12.33;8.77;;;-1.80;56.40;;;-3.50;69.67;98652.31;5023571;28;20963;-74
2022/03/09 01:23:28;;;;;;;12.43;10.20;;;-1.90;57.00;;;-3.44;69.02;98643.91;5024024;28;21015;-72
2022/03/09 01:25:55;;;;;;;14.47;9.90;;;-1.80;57.30;;;-3.46;69.44;98660.88;5024526;28;20517;-72
2022/03/09 01:28:22;;;;;;;13.87;9.50;;;-1.80;57.30;;;-3.72;70.64;98656.47;5019638;28;20493;-72
2022/03/09 01:30:50;;;;;;;12.10;9.47;;;-2.00;58.00;;;-3.81;70.97;98657.13;5022920;28;20556;-73
2022/03/09 01:33:17;;;;;;;17.03;10.13;;;-2.10;59.10;;;-3.34;69.59;98656.47;5020828;28;21117;-74
2022/03/09 01:35:44;;;;;;;14.77;10.10;;;-1.90;59.20;;;-3.19;69.21;98657.16;5020468;28;20601;-73
2022/03/09 01:38:11;;;;;;;13.53;8.93;;;-1.70;59.00;;;-3.21;69.41;98637.91;5020631;28;20462;-73
2022/03/09 01:40:38;;;;;;;12.43;9.90;;;-1.60;58.80;;;-3.20;69.15;98643.09;5031792;28;21834;-72
2022/03/09 01:43:05;;;;;;;15.20;9.77;;;-1.50;58.70;;;-3.29;69.29;98631.41;5019827;28;20958;-73
2022/03/09 01:45:32;;;;;;;13.93;10.70;;;-1.60;58.60;;;-3.28;69.59;98637.53;5020501;28;20462;-72
2022/03/09 01:48:00;;;;;;;12.00;9.10;;;-1.60;58.70;;;-3.28;69.61;98633.09;5019277;28;20536;-72
2022/03/09 01:50:28;;;;;;;12.43;9.00;;;-1.60;58.90;;;-3.28;69.57;98626.94;5037766;28;20874;-72
2022/03/09 01:52:59;;;;;;;13.83;9.97;;;-1.70;59.00;;;-3.75;69.58;98561.59;5016377;28;22474;-71
2022/03/09 01:55:27;;;;;;;14.03;10.07;;;-1.70;59.00;;;-3.57;70.62;98616.69;5024961;28;20721;-72
2022/03/09 01:57:53;;;;;;;13.67;10.00;;;-1.80;59.40;;;-3.62;70.89;98618.84;5025534;28;20507;-72
2022/03/09 02:00:22;;;;;;;16.60;9.67;;;-1.90;59.90;;;-3.53;70.77;98627.91;5024182;28;20478;-73
2022/03/09 02:02:49;;;;;;;16.10;10.17;;;-2.00;60.20;;;-3.39;70.34;98616.34;5024383;28;20551;-73
2022/03/09 02:05:17;;;;;;;12.53;9.90;;;-1.80;60.30;;;-3.46;70.27;98606.19;5023747;28;20555;-73
2022/03/09 02:10:29;;;;;;;14.30;9.30;;;-1.70;60.20;;;-3.53;70.34;98622.59;5023331;28;20459;-73
2022/03/09 02:12:56;;;;;;;11.80;9.50;;;-1.80;59.80;;;-3.82;71.78;98617.63;5025231;28;20942;-73
2022/03/09 02:15:23;;;;;;;13.03;9.00;;;-2.00;60.50;;;-3.97;72.28;98620.38;5023005;28;20801;-72
2022/03/09 02:17:50;;;;;;;12.03;8.93;;;-2.20;61.40;;;-3.96;72.23;98610.69;5021551;28;20513;-73
2022/03/09 02:20:19;;;;;;;13.67;9.87;;;-2.30;62.20;;;-3.75;71.79;98624.16;5039069;28;20521;-72
2022/03/09 02:22:47;;;;;;;12.50;9.43;;;-2.30;62.60;;;-4.16;71.31;98553.06;5038158;28;20504;-72
2022/03/09 02:25:16;;;;;;;13.00;9.43;;;-2.10;62.20;;;-3.78;71.62;98641.06;5023087;28;20488;-72
2022/03/09 02:27:45;;;;;;;11.57;9.30;;;-2.20;62.20;;;-3.76;71.78;98641.78;5023698;28;20566;-73
2022/03/09 02:30:15;;;;;;;13.40;10.53;;;-2.20;62.50;;;-3.69;71.31;98644.84;5023939;28;20556;-72
2022/03/09 02:32:44;;;;;;;14.47;10.00;;;-2.10;62.30;;;-3.66;70.96;98638.50;5022017;28;20466;-72
2022/03/09 02:35:12;;;;;;;14.33;9.90;;;-2.00;62.30;;;-3.72;71.51;98651.19;5024901;28;20455;-72
2022/03/09 02:37:39;;;;;;;10.03;8.70;;;-2.00;62.20;;;-3.71;71.45;98658.19;5023267;28;20478;-72
2022/03/09 02:40:11;;;;;;;12.60;9.90;;;-2.00;62.30;;;-3.76;71.79;98652.34;5023908;28;20560;-71
2022/03/09 02:42:39;;;;;;;11.73;8.57;;;-2.10;62.30;;;-3.90;72.10;98652.47;5023914;28;20882;-71
2022/03/09 02:45:07;;;;;;;14.73;9.80;;;-2.20;62.60;;;-3.96;72.25;98652.94;5024728;28;20497;-72
2022/03/09 02:47:35;;;;;;;14.73;10.23;;;-2.30;62.90;;;-3.93;72.39;98652.72;5021340;28;20508;-72
2022/03/09 02:50:02;;;;;;;12.10;9.33;;;-2.30;63.50;;;-3.91;72.19;98651.66;5024665;28;20636;-71
2022/03/09 02:52:29;;;;;;;13.47;10.00;;;-2.30;63.70;;;-3.82;72.01;98652.81;5004377;28;20530;-72
2022/03/09 02:54:56;;;;;;;12.10;9.13;;;-2.30;63.70;;;-3.73;71.82;98652.13;5023297;28;20462;-73
2022/03/09 02:57:24;;;;;;;12.53;10.17;;;-2.20;63.60;;;-3.76;72.06;98654.16;5019941;28;21037;-71
2022/03/09 02:59:51;;;;;;;12.10;9.57;;;-2.10;63.60;;;-3.78;72.05;98656.09;5023521;28;20468;-71
2022/03/09 03:02:18;;;;;;;15.80;10.87;;;-2.10;63.60;;;-3.77;71.88;98657.75;5024289;28;20565;-72
2022/03/09 03:04:45;;;;;;;16.47;10.70;;;-2.10;63.50;;;-4.09;72.01;98611.53;5022455;28;20548;-74
2022/03/09 03:07:12;;;;;;;12.27;9.90;;;-2.10;64.00;;;-3.66;71.65;98660.47;5022953;28;20474;-71
2022/03/09 03:09:39;;;;;;;12.60;9.60;;;-2.00;63.70;;;-3.68;71.68;98664.19;5021029;28;20462;-72
2022/03/09 03:12:07;;;;;;;17.57;10.40;;;-2.00;63.50;;;-3.60;71.44;98656.56;5017798;28;20458;-72
2022/03/09 03:14:35;;;;;;;12.20;9.77;;;-1.90;63.50;;;-3.58;71.30;98660.78;5027889;28;20463;-71
2022/03/09 03:17:02;;;;;;;12.30;9.80;;;-1.90;63.20;;;-3.60;71.47;98659.19;5022648;28;20482;-71
2022/03/09 03:19:29;;;;;;;11.80;9.70;;;-1.90;63.30;;;-3.65;71.45;98650.75;5022911;28;20540;-70
2022/03/09 03:21:56;;;;;;;13.23;10.07;;;-1.90;63.30;;;-3.58;71.71;98657.28;5024101;28;21006;-71
2022/03/09 03:24:23;;;;;;;11.40;8.90;;;-1.90;63.30;;;-3.74;72.15;98655.72;5025590;28;20542;-72
2022/03/09 03:26:50;;;;;;;10.77;8.23;;;-2.00;63.10;;;-3.90;72.89;98663.03;5024624;28;20469;-70
2022/03/09 03:29:17;;;;;;;13.37;9.67;;;-2.20;63.80;;;-3.88;72.37;98658.50;5025511;28;20472;-71
2022/03/09 03:31:46;;;;;;;12.87;9.30;;;-2.20;64.30;;;-3.72;72.42;98658.28;5025741;28;20533;-70
2022/03/09 03:34:12;;;;;;;14.43;10.17;;;-2.10;64.60;;;-3.87;72.36;98657.53;5039828;28;20455;-71
2022/03/09 03:36:40;;;;;;;14.10;9.83;;;-2.20;64.10;;;-4.05;73.46;98654.41;5026309;28;20585;-72
2022/03/09 03:39:07;;;;;;;11.97;9.60;;;-2.30;64.70;;;-4.14;73.71;98650.63;5028385;28;20476;-73
2022/03/09 03:41:34;;;;;;;11.50;9.57;;;-2.40;65.20;;;-4.04;73.90;98650.81;5025329;28;20462;-73
2022/03/09 03:44:01;;;;;;;12.30;9.27;;;-2.50;66.00;;;-4.23;74.45;98640.69;5022929;28;20560;-73
2022/03/09 03:46:28;;;;;;;12.57;9.87;;;-2.50;66.20;;;-4.16;74.43;98647.25;5023009;28;20470;-71
2022/03/09 03:48:57;;;;;;;14.87;9.83;;;-2.60;66.90;;;-4.22;74.41;98655.56;5024955;28;20494;-72
2022/03/09 03:51:24;;;;;;;12.47;9.93;;;-2.60;66.70;;;-4.31;74.87;98630.66;5023232;28;20560;-72
2022/03/09 03:53:51;;;;;;;12.73;9.30;;;-2.60;67.50;;;-4.50;74.39;98591.50;5022900;28;20481;-72
2022/03/09 03:56:18;;;;;;;11.70;9.50;;;-2.60;68.10;;;-4.25;74.64;98653.16;5024254;28;20508;-72
2022/03/09 03:58:45;;;;;;;13.87;11.00;;;-2.60;67.80;;;-4.18;74.42;98655.25;5022564;28;20462;-71
2022/03/09 04:01:12;;;;;;;14.40;10.00;;;-2.60;68.10;;;-3.99;73.95;98660.13;5026003;28;20462;-73
2022/03/09 04:03:39;;;;;;;14.10;9.90;;;-2.50;67.90;;;-3.82;72.80;98663.38;5019353;28;20560;-74
2022/03/09 04:06:07;;;;;;;15.43;10.73;;;-2.30;67.20;;;-4.00;73.20;98660.22;5022855;28;20597;-73
2022/03/09 04:08:34;;;;;;;12.83;9.40;;;-2.30;66.30;;;-4.20;74.40;98661.59;5018652;28;20473;-72
2022/03/09 04:11:01;;;;;;;12.97;9.03;;;-2.50;66.90;;;-4.31;74.63;98667.59;5022450;28;20523;-72
2022/03/09 04:13:28;;;;;;;15.40;9.93;;;-2.60;67.60;;;-4.38;74.97;98667.19;5022358;28;20458;-72
2022/03/09 04:15:55;;;;;;;14.27;10.90;;;-2.70;68.20;;;-4.46;75.51;98670.34;5022894;28;20512;-72
2022/03/09 04:18:22;;;;;;;11.67;10.43;;;-2.80;68.50;;;-4.30;75.15;98667.50;5024220;28;20490;-72
2022/03/09 04:20:49;;;;;;;20.20;11.23;;;-2.80;69.20;;;-4.04;73.80;98667.50;5023632;28;20550;-72
2022/03/09 04:23:18;;;;;;;17.00;11.53;;;-2.60;68.40;;;-3.98;73.48;98666.22;5024705;28;20488;-72
2022/03/09 04:25:45;;;;;;;13.70;9.50;;;-2.40;68.00;;;-3.87;73.34;98673.38;5025322;28;20549;-72
2022/03/09 04:28:11;;;;;;;14.50;10.60;;;-2.30;67.60;;;-3.96;73.67;98671.41;5022679;28;20557;-72
2022/03/09 04:30:39;;;;;;;13.27;10.67;;;-2.30;67.30;;;-3.90;73.51;98679.75;5023746;28;20870;-72
2022/03/09 04:33:06;;;;;;;11.70;10.20;;;-2.20;67.10;;;-3.93;73.69;98679.97;5020958;28;20463;-74
2022/03/09 04:35:33;;;;;;;15.40;11.20;;;-2.20;67.10;;;-4.01;73.86;98683.16;5020097;28;20458;-72
2022/03/09 04:38:00;;;;;;;12.40;10.73;;;-2.30;67.10;;;-4.03;73.82;98689.47;5034364;28;20474;-74
2022/03/09 04:40:29;;;;;;;13.37;10.40;;;-2.30;67.00;;;-4.13;74.11;98689.25;5021992;28;20473;-72
2022/03/09 04:42:56;;;;;;;15.30;10.23;;;-2.40;67.50;;;-4.58;74.49;98643.00;5019381;28;20462;-73
2022/03/09 04:45:23;;;;;;;17.50;10.00;;;-2.50;67.40;;;-4.28;74.67;98692.00;5020767;28;20524;-72
2022/03/09 04:47:50;;;;;;;11.87;10.20;;;-2.50;67.80;;;-4.36;75.11;98694.31;5021441;28;21025;-72
2022/03/09 04:50:17;;;;;;;19.53;10.00;;;-2.60;68.20;;;-4.39;75.25;98689.25;5021092;28;20512;-72
2022/03/09 04:52:44;;;;;;;13.43;10.10;;;-2.70;68.40;;;-4.41;75.44;98696.41;5020640;28;20512;-72
2022/03/09 04:55:11;;;;;;;13.20;10.13;;;-2.70;68.90;;;-4.42;75.47;98695.56;5021675;28;20556;-73
2022/03/09 04:57:39;;;;;;;12.17;10.73;;;-2.70;69.10;;;-4.52;75.33;98693.66;5017339;28;20855;-73
2022/03/09 05:00:08;;;;;;;14.03;10.00;;;-2.80;68.80;;;-4.77;76.67;98679.47;5020524;28;20477;-72
2022/03/09 05:02:35;;;;;;;14.27;11.20;;;-2.90;69.80;;;-4.47;76.28;98700.31;5020076;28;20546;-72
2022/03/09 05:05:03;;;;;;;15.43;10.90;;;-2.90;70.70;;;-4.39;76.08;98694.50;5024503;28;20548;-72
2022/03/09 05:07:30;;;;;;;15.20;11.10;;;-2.70;70.30;;;-4.30;75.56;98706.25;5020379;28;20463;-72
2022/03/09 05:09:57;;;;;;;11.83;9.60;;;-2.70;70.00;;;-4.29;75.46;98706.16;5021194;28;20524;-72
2022/03/09 05:12:24;;;;;;;16.40;10.53;;;-2.60;69.60;;;-4.27;75.20;98714.81;5016213;28;20532;-72
2022/03/09 05:14:52;;;;;;;14.07;10.57;;;-2.60;69.30;;;-4.30;75.20;98714.16;5017262;28;20881;-72
2022/03/09 05:17:20;;;;;;;14.50;10.00;;;-2.60;69.10;;;-4.28;75.23;98721.03;5017369;28;20576;-72
2022/03/09 05:19:47;;;;;;;15.60;10.60;;;-2.60;69.00;;;-4.31;75.05;98729.16;5019978;28;20473;-73
2022/03/09 05:22:14;;;;;;;12.60;10.50;;;-2.50;68.90;;;-4.41;75.35;98730.72;5021613;28;21141;-73
2022/03/09 05:24:41;;;;;;;15.13;9.70;;;-2.60;69.30;;;-4.52;75.93;98735.84;5025236;28;20865;-72
2022/03/09 05:27:08;;;;;;;14.67;9.67;;;-2.70;69.00;;;-4.73;76.47;98744.25;5020253;28;21027;-72
2022/03/09 05:29:35;;;;;;;13.40;9.63;;;-2.90;69.80;;;-4.75;77.10;98746.97;5025921;28;20482;-72
2022/03/09 05:32:04;;;;;;;19.37;11.30;;;-3.00;70.90;;;-4.73;77.02;98749.53;5025303;28;20550;-71
2022/03/09 05:34:31;;;;;;;19.00;10.77;;;-3.00;71.10;;;-4.82;77.66;98744.84;5028660;28;20498;-72
2022/03/09 05:36:58;;;;;;;13.90;10.20;;;-3.10;71.50;;;-4.86;77.93;98750.31;5028231;28;20481;-70
2022/03/09 05:39:25;;;;;;;19.07;11.00;;;-3.20;72.10;;;-4.90;77.83;98745.34;5026719;28;20515;-71
2022/03/09 05:41:53;;;;;;;15.30;11.07;;;-3.20;72.50;;;-4.84;78.03;98744.94;5026952;28;20488;-71
2022/03/09 05:44:20;;;;;;;16.37;10.70;;;-3.20;73.10;;;-4.74;77.71;98747.84;5024569;28;20477;-72
2022/03/09 05:46:47;;;;;;;13.23;9.83;;;-3.20;73.10;;;-4.69;77.22;98745.72;5025261;28;20462;-70
2022/03/09 05:49:15;;;;;;;9.97;8.87;;;-3.10;72.60;;;-4.59;76.70;98757.38;5026794;28;20462;-73
2022/03/09 05:51:42;;;;;;;16.50;11.57;;;-3.00;72.20;;;-4.73;77.10;98752.16;5024617;28;20941;-71
2022/03/09 05:54:09;;;;;;;18.67;11.73;;;-3.00;71.60;;;-4.90;78.87;98754.09;5023174;28;20484;-72
2022/03/09 05:56:36;;;;;;;19.13;11.27;;;-3.10;73.00;;;-4.87;78.84;98761.81;5024514;28;20551;-71
2022/03/09 05:59:03;;;;;;;15.77;11.17;;;-3.20;74.00;;;-4.80;78.76;98767.53;5027284;28;20528;-71
2022/03/09 06:01:30;;;;;;;15.93;11.97;;;-3.20;74.40;;;-4.78;78.63;98757.72;5025831;28;20600;-76
2022/03/09 06:03:57;;;;;;;17.77;11.77;;;-3.10;74.40;;;-4.79;78.76;98760.44;5024645;28;20458;-75
2022/03/09 06:06:26;;;;;;;17.10;11.40;;;-3.10;74.60;;;-4.73;78.38;98760.06;5021354;28;20520;-73
2022/03/09 06:08:53;;;;;;;20.20;10.57;;;-3.10;74.50;;;-4.73;78.29;98765.34;5022944;28;20542;-75
2022/03/09 06:11:20;;;;;;;17.67;11.10;;;-3.10;74.10;;;-4.69;78.26;98761.56;5024459;28;20571;-73
2022/03/09 06:13:47;;;;;;;20.53;13.50;;;-3.10;74.10;;;-4.58;78.08;98747.66;5021214;28;20472;-74
2022/03/09 06:16:16;;;;;;;24.23;13.40;;;-3.00;74.60;;;-4.22;78.20;98762.00;5022592;28;20524;-74
2022/03/09 06:18:46;;;;;;;18.70;11.90;;;-2.80;75.50;;;-4.32;77.28;98758.28;5020977;28;20581;-73
2022/03/09 06:21:13;;;;;;;14.80;11.40;;;-2.70;73.80;;;-4.24;77.24;98768.31;5024056;28;20856;-73
2022/03/09 06:23:42;;;;;;;21.20;12.90;;;-2.60;73.60;;;-4.28;76.93;98763.25;5037381;28;20466;-72
2022/03/09 06:26:09;;;;;;;15.40;10.67;;;-2.60;73.10;;;-4.25;76.87;98769.28;5022108;28;20459;-74
2022/03/09 06:28:36;;;;;;;19.03;12.00;;;-2.60;72.80;;;-4.08;76.61;98761.06;5020017;28;20523;-74
2022/03/09 06:31:03;;;;;;;18.70;12.23;;;-2.50;72.80;;;-3.78;76.00;98757.28;5023853;28;21036;-74
2022/03/09 06:33:30;;;;;;;21.33;13.27;;;-2.30;72.70;;;-3.47;75.74;98755.13;5022070;28;20463;-73
2022/03/09 06:35:57;;;;;;;17.83;13.43;;;-2.00;72.80;;;-3.48;74.86;98753.44;5023715;28;20535;-79
2022/03/09 06:38:24;;;;;;;15.50;10.70;;;-1.90;71.20;;;-3.55;74.75;98749.56;5019609;28;20478;-74
2022/03/09 06:40:53;;;;;;;17.33;12.40;;;-1.90;70.70;;;-3.50;73.72;98757.13;5024085;28;20822;-74
2022/03/09 06:43:20;;;;;;;19.43;10.40;;;-1.90;70.10;;;-3.40;73.49;98765.28;5022100;28;20510;-74
2022/03/09 06:45:47;;;;;;;17.63;12.67;;;-1.80;69.80;;;-3.26;72.95;98767.81;5024668;28;20539;-74
2022/03/09 06:48:14;;;;;;;19.20;12.97;;;-1.70;69.00;;;-3.10;72.40;98761.41;5023642;28;20557;-73
2022/03/09 06:50:41;;;;;;;18.77;12.23;;;-1.60;68.70;;;-3.03;72.11;98767.94;5024301;28;20489;-76
2022/03/09 06:53:08;;;;;;;16.90;12.70;;;-1.40;68.30;;;-2.82;71.38;98775.28;5019812;28;20463;-76
2022/03/09 06:55:35;;;;;;;15.20;12.47;;;-1.30;67.50;;;-3.00;71.56;98767.72;5019726;28;20509;-73
2022/03/09 06:58:04;;;;;;;22.60;13.80;;;-1.30;66.80;;;-3.01;71.46;98766.03;5023558;28;22045;-73
2022/03/09 07:00:31;;;;;;;16.37;12.90;;;-1.30;66.80;;;-2.92;71.35;98775.94;5023238;28;20443;-73
2022/03/09 07:02:59;;;;;;;17.63;12.97;;;-1.20;66.50;;;-2.73;71.13;98774.59;5040570;28;21013;-74
2022/03/09 07:05:27;;;;;;;20.40;11.80;;;-1.10;66.50;;;-2.69;70.88;98769.94;5020953;28;20563;-74
2022/03/09 07:07:54;;;;;;;18.40;13.40;;;-1.10;66.50;;;-2.37;71.74;98778.13;5023933;28;20452;-74
2022/03/09 07:10:21;;;;;;;19.30;13.03;;;-0.90;67.70;;;-2.32;70.56;98769.84;5024210;28;20543;-75
2022/03/09 07:12:48;;;;;;;16.20;11.87;;;-0.80;66.60;;;-2.42;70.00;98788.22;5021803;28;20549;-74
2022/03/09 07:15:17;;;;;;;16.20;11.40;;;-0.80;65.80;;;-2.27;69.83;98783.63;5027444;28;20467;-74
2022/03/09 07:17:45;;;;;;;14.00;11.00;;;-0.70;65.80;;;-2.23;69.33;98792.16;5022200;28;20548;-73
2022/03/09 07:20:13;;;;;;;22.77;11.50;;;-0.60;65.30;;;-2.14;69.10;98794.94;5022721;28;20466;-74
2022/03/09 07:22:41;;;;;;;13.80;11.40;;;-0.50;65.10;;;-2.05;68.62;98801.34;5018528;28;20957;-74
2022/03/09 07:25:10;;;;;;;23.20;12.47;;;-0.50;64.70;;;-1.67;68.14;98793.25;5024685;28;20992;-73
2022/03/09 07:27:37;;;;;;;17.83;12.93;;;-0.30;64.70;;;-1.66;67.18;98787.84;5022888;28;20504;-73
2022/03/09 07:30:06;;;;;;;21.47;13.10;;;-0.10;63.40;;;-1.56;66.67;98787.97;5024300;28;20470;-75
2022/03/09 07:32:34;;;;;;;14.17;10.97;;;-0.10;62.80;;;-1.57;66.68;98788.94;5016078;28;20474;-74
2022/03/09 07:35:01;;;;;;;16.93;12.07;;;0.00;63.10;;;-1.55;66.45;98787.03;5024057;28;20532;-74
2022/03/09 07:37:29;;;;;;;18.83;12.50;;;0.10;62.40;;;-1.28;66.05;98793.78;5020047;28;20454;-76
2022/03/09 07:39:56;;;;;;;22.38;11.80;;;0.20;61.90;;;-1.32;65.57;98787.88;5005990;28;20509;-79
2022/03/09 07:42:24;;;;;;;21.27;14.65;;;0.30;61.80;;;-0.98;64.83;98773.75;5018332;28;20944;-74
2022/03/09 07:44:51;;;;;;;16.00;13.07;;;0.40;61.40;;;-0.82;64.08;98799.06;5012775;28;20200;-74
2022/03/09 07:47:20;;;;;;;16.40;12.17;;;0.60;60.10;;;-1.05;63.49;98772.53;5017076;28;20602;-81
2022/03/09 07:49:48;;;;;;;16.23;12.63;;;0.70;59.70;;;-0.77;63.72;98800.34;5021333;28;20461;-75
2022/03/09 07:52:15;;;;;;;17.10;12.57;;;0.80;59.30;;;-0.67;63.36;98805.78;5018358;28;20467;-74
2022/03/09 07:54:42;;;;;;;14.57;11.90;;;0.80;59.30;;;-0.54;62.57;98805.59;5023038;28;20482;-74
2022/03/09 07:57:09;;;;;;;15.30;12.33;;;0.90;58.80;;;-0.39;62.61;98803.50;5020649;28;20977;-73
2022/03/09 07:59:36;;;;;;;17.53;11.50;;;1.00;58.60;;;-0.73;62.19;98769.94;5024391;28;20482;-73
2022/03/09 08:02:04;;;;;;;18.97;13.27;;;1.10;57.80;;;-0.46;61.93;98794.38;5019454;28;20810;-74
2022/03/09 08:04:31;;;;;;;16.33;11.93;;;1.10;57.70;;;-0.22;61.76;98804.78;5019814;28;20557;-74
2022/03/09 08:06:59;;;;;;;17.13;12.80;;;1.30;57.60;;;-0.16;61.86;98801.59;5020141;28;20464;-74
2022/03/09 08:09:26;;;;;;;15.70;12.00;;;1.30;57.60;;;-0.07;61.65;98807.13;5024862;28;20581;-74
2022/03/09 08:11:53;;;;;;;15.70;11.73;;;1.40;57.40;;;0.34;59.89;98801.94;5020053;28;20454;-73
2022/03/09 08:14:20;;;;;;;16.00;12.70;;;1.70;56.60;;;0.32;59.45;98798.59;5036463;28;20459;-75
2022/03/09 08:16:48;;;;;;;15.50;11.20;;;1.80;56.10;;;0.34;59.79;98794.81;5036381;28;20973;-75
2022/03/09 08:19:15;;;;;;;15.97;11.80;;;1.80;55.90;;;0.52;59.39;98797.72;5021158;28;20540;-74
2022/03/09 08:21:43;;;;;;;16.40;11.73;;;1.90;55.90;;;0.63;59.06;98791.50;5023335;28;20485;-73
2022/03/09 08:24:11;;;;;;;25.73;17.77;;;2.10;55.30;;;0.84;58.54;98791.44;5018775;28;20487;-72
2022/03/09 08:26:38;;;;;;;18.52;15.35;;;2.20;55.10;;;1.02;58.77;98800.59;5019395;28;20531;-74
2022/03/09 08:29:05;;;;;;;17.90;12.60;;;2.40;55.10;;;1.27;56.87;98799.25;5021094;28;20201;-72
2022/03/09 08:31:32;;;;;;;19.40;13.73;;;2.60;54.20;;;1.53;56.65;98798.75;5020245;28;20970;-73
2022/03/09 08:33:59;;;;;;;18.40;14.23;;;2.80;53.80;;;1.52;56.62;98794.41;5020381;28;20461;-72
2022/03/09 08:36:26;;;;;;;17.37;12.03;;;2.90;53.30;;;1.64;56.31;98795.97;5019268;28;20453;-71
2022/03/09 08:38:55;;;;;;;19.70;12.70;;;3.00;53.10;;;1.82;55.26;98788.13;5022229;28;20591;-74
2022/03/09 08:41:25;;;;;;;16.57;12.67;;;3.20;52.60;;;1.92;54.93;98788.13;5017279;28;20493;-73
2022/03/09 08:43:53;;;;;;;17.43;13.77;;;3.30;52.00;;;2.04;54.01;98787.94;5021815;28;20465;-74
2022/03/09 08:46:20;;;;;;;26.73;14.33;;;3.40;51.20;;;2.23;53.69;98781.75;5018794;28;20473;-73
2022/03/09 08:48:47;;;;;;;17.93;14.27;;;3.60;50.90;;;2.20;53.66;98777.56;5019855;28;21041;-75
2022/03/09 08:51:17;;;;;;;18.53;13.43;;;3.60;50.70;;;2.41;53.43;98780.03;5022392;28;21077;-74
2022/03/09 08:53:44;;;;;;;18.50;13.97;;;3.70;50.70;;;2.46;52.30;98778.78;5021149;28;20522;-74
2022/03/09 08:56:11;;;;;;;21.90;14.70;;;3.80;49.60;;;2.61;50.82;98782.66;5022085;28;20597;-74
2022/03/09 08:58:39;;;;;;;17.60;12.80;;;4.00;49.00;;;2.61;50.60;98789.81;5020520;28;20508;-74
2022/03/09 09:01:07;;;;;;;14.43;12.17;;;4.00;47.90;;;2.52;50.95;98784.38;5022324;28;20784;-73
2022/03/09 09:03:34;;;;;;;16.07;11.97;;;4.00;47.50;;;2.60;50.36;98780.97;5020029;28;20476;-75
2022/03/09 09:06:01;;;;;;;16.10;11.80;;;4.00;47.30;;;2.72;50.31;98778.97;5024595;28;20488;-76
2022/03/09 09:08:29;;;;;;;16.90;12.37;;;4.10;47.30;;;3.03;49.73;98778.69;5021892;28;20513;-74
2022/03/09 09:10:55;;;;;;;14.60;11.53;;;4.30;47.10;;;3.07;48.83;98788.06;5034082;28;20922;-74
2022/03/09 09:13:23;;;;;;;14.87;11.80;;;4.40;46.60;;;3.17;48.89;98789.88;5022336;28;20461;-75
2022/03/09 09:15:52;;;;;;;18.80;12.27;;;4.50;46.40;;;3.25;48.62;98776.59;5023645;28;20508;-76
2022/03/09 09:18:19;;;;;;;16.30;11.90;;;4.60;46.40;;;3.56;47.62;98788.78;5022463;28;20545;-74
2022/03/09 09:20:47;;;;;;;13.70;11.00;;;4.80;45.80;;;3.58;47.88;98778.78;5019148;28;20469;-74
2022/03/09 09:23:14;;;;;;;17.60;12.70;;;4.90;45.60;;;3.71;46.95;98778.38;5018600;28;20959;-81
2022/03/09 09:25:41;;;;;;;18.00;11.60;;;5.00;45.40;;;3.69;47.18;98778.56;5022687;28;20564;-82
2022/03/09 09:28:08;;;;;;;15.03;10.90;;;5.10;45.30;;;3.79;46.97;98775.81;5017637;28;20473;-81
2022/03/09 09:30:35;;;;;;;15.30;11.13;;;5.10;45.00;;;4.04;46.24;98776.03;5022786;28;20540;-82
2022/03/09 09:33:04;;;;;;;16.53;11.27;;;5.30;44.90;;;4.03;45.40;98777.03;5018660;28;20466;-82
2022/03/09 09:35:32;;;;;;;16.57;10.73;;;5.40;44.30;;;4.11;45.50;98775.25;5019706;28;20562;-80
2022/03/09 09:38:06;;;;;;;12.97;10.73;;;5.40;44.10;;;4.35;45.48;98771.06;5020101;28;20468;-82
2022/03/09 09:40:34;;;;;;;13.17;10.20;;;5.60;44.20;;;4.29;45.46;98734.25;5022187;28;20461;-83
2022/03/09 09:43:07;;;;;;;22.23;11.53;;;5.70;43.80;;;4.60;44.68;98763.19;5020313;28;20465;-79
2022/03/09 09:45:35;;;;;;;13.67;10.50;;;5.90;43.50;;;4.71;43.33;98740.66;5017896;28;20576;-83
2022/03/09 09:48:04;;;;;;;16.80;10.60;;;6.00;43.20;;;4.80;43.71;98747.75;5019068;28;20484;-79
2022/03/09 09:50:31;;;;;;;12.27;10.50;;;6.10;43.00;;;4.95;43.36;98757.84;5018241;28;20632;-79
2022/03/09 09:52:59;;;;;;;12.27;10.20;;;6.20;42.80;;;5.02;43.69;98755.38;5019360;28;20928;-80
2022/03/09 09:55:27;;;;;;;13.07;9.73;;;6.30;42.80;;;5.09;42.86;98749.19;5021457;28;20552;-78
2022/03/09 09:57:56;;;;;;;12.23;9.30;;;6.40;42.10;;;5.21;42.24;98746.19;5034363;28;21226;-84
2022/03/09 10:00:24;;;;;;;12.90;9.93;;;6.50;42.20;;;5.29;41.81;98730.16;5038410;28;20904;-82
2022/03/09 10:02:52;;;;;;;11.47;9.97;;;6.60;42.00;;;5.29;41.85;98740.03;5022138;28;20457;-82
2022/03/09 10:05:21;;;;;;;11.73;8.60;;;6.60;41.80;;;5.35;41.60;98739.38;5020696;28;20613;-80
2022/03/09 10:08:13;;;;;;;13.40;10.15;;;6.60;41.60;;;5.52;41.47;98743.78;5036140;28;20457;-81
2022/03/09 10:10:42;;;;;;;11.50;9.43;;;6.80;41.50;;;5.67;41.27;98743.94;5021472;28;20421;-82
2022/03/09 10:13:17;;;;;;;13.87;9.47;;;6.80;41.20;;;5.77;39.88;98726.88;5017418;28;20469;-81
2022/03/09 10:15:47;;;;;;;13.43;8.93;;;7.00;40.70;;;5.88;39.93;98731.06;5022589;28;21053;-82